createdAt,value
2022-11-05T00:01:58.719Z,43.79
2022-11-05T00:04:30.600Z,43.77
2022-11-05T00:06:57.304Z,43.45
2022-11-05T00:09:23.582Z,43.73
2022-11-05T00:11:49.883Z,43.46
2022-11-05T00:14:16.167Z,43.72
2022-11-05T00:16:42.473Z,44.07
2022-11-05T00:19:08.770Z,43.92
2022-11-05T00:21:35.059Z,43.90
2022-11-05T00:24:01.341Z,43.80
2022-11-05T00:26:27.638Z,43.63
2022-11-05T00:28:53.923Z,43.86
2022-11-05T00:31:20.210Z,43.64
2022-11-05T00:33:46.555Z,43.36
2022-11-05T00:36:12.859Z,43.59
2022-11-05T00:38:39.148Z,43.94
2022-11-05T00:41:05.449Z,44.15
2022-11-05T00:43:31.736Z,44.11
2022-11-05T00:45:58.022Z,43.97
2022-11-05T00:48:24.323Z,44.35
2022-11-05T00:50:50.606Z,44.30
2022-11-05T00:53:16.886Z,44.54
2022-11-05T00:55:43.189Z,44.47
2022-11-05T00:58:09.466Z,44.44
2022-11-05T01:00:35.751Z,44.43
2022-11-05T01:03:02.045Z,44.28
2022-11-05T01:05:28.330Z,43.99
2022-11-05T01:07:54.607Z,44.16
2022-11-05T01:10:20.907Z,44.26
2022-11-05T01:12:47.196Z,43.97
2022-11-05T01:15:13.477Z,44.04
2022-11-05T01:17:39.780Z,44.23
2022-11-05T01:20:06.067Z,43.82
2022-11-05T01:22:32.351Z,44.05
2022-11-05T01:24:58.655Z,44.09
2022-11-05T01:27:24.950Z,44.38
2022-11-05T01:29:51.237Z,44.06
2022-11-05T01:32:17.543Z,44.12
2022-11-05T01:34:43.827Z,44.19
2022-11-05T01:37:10.118Z,43.85
2022-11-05T01:39:36.458Z,44.21
2022-11-05T01:42:02.736Z,44.48
2022-11-05T01:44:29.040Z,44.59
2022-11-05T01:46:55.346Z,44.52
2022-11-05T01:49:21.631Z,44.62
2022-11-05T01:51:47.935Z,44.71
2022-11-05T01:54:14.231Z,44.28
2022-11-05T01:56:40.511Z,44.55
2022-11-05T01:59:06.793Z,44.19
2022-11-05T02:01:33.197Z,44.47
2022-11-05T02:03:59.611Z,44.33
2022-11-05T02:06:25.899Z,44.34
2022-11-05T02:08:52.208Z,44.17
2022-11-05T02:11:18.494Z,44.48
2022-11-05T02:13:44.779Z,44.58
2022-11-05T02:16:11.208Z,44.51
2022-11-05T02:18:37.494Z,45.17
2022-11-05T02:21:03.781Z,45.06
2022-11-05T02:23:30.083Z,44.86
2022-11-05T02:25:56.366Z,44.89
2022-11-05T02:28:22.641Z,44.65
2022-11-05T02:30:48.950Z,45.25
2022-11-05T02:33:15.239Z,44.89
2022-11-05T02:35:41.625Z,45.24
2022-11-05T02:38:07.945Z,45.07
2022-11-05T02:40:34.247Z,44.74
2022-11-05T02:43:00.539Z,44.87
2022-11-05T02:45:26.948Z,45.13
2022-11-05T02:47:53.227Z,44.85
2022-11-05T02:50:19.511Z,44.92
2022-11-05T02:52:45.811Z,45.22
2022-11-05T02:55:12.104Z,45.16
2022-11-05T02:57:38.396Z,45.43
2022-11-05T03:00:04.695Z,45.21
2022-11-05T03:02:31.121Z,45.73
2022-11-05T03:04:57.498Z,46.09
2022-11-05T03:07:23.809Z,45.95
2022-11-05T03:09:50.096Z,45.50
2022-11-05T03:12:16.387Z,45.47
2022-11-05T03:14:42.802Z,45.75
2022-11-05T03:17:09.086Z,45.23
2022-11-05T03:19:35.361Z,45.12
2022-11-05T03:22:01.829Z,45.46
2022-11-05T03:24:28.129Z,44.78
2022-11-05T03:26:54.417Z,44.96
2022-11-05T03:29:20.721Z,44.91
2022-11-05T03:31:47.006Z,44.86
2022-11-05T03:34:13.289Z,44.97
2022-11-05T03:36:39.626Z,45.07
2022-11-05T03:39:05.922Z,45.67
2022-11-05T03:41:32.216Z,45.26
2022-11-05T03:43:58.538Z,45.22
2022-11-05T03:46:24.818Z,45.28
2022-11-05T03:48:51.184Z,45.12
2022-11-05T03:51:18.283Z,45.48
2022-11-05T03:53:44.573Z,45.37
2022-11-05T03:56:10.862Z,45.84
2022-11-05T03:58:37.182Z,45.43
2022-11-05T04:01:03.472Z,45.61
2022-11-05T04:03:29.759Z,45.55
2022-11-05T04:05:56.076Z,45.62
2022-11-05T04:08:22.354Z,45.19
2022-11-05T04:10:48.638Z,45.48
2022-11-05T04:13:14.945Z,45.80
2022-11-05T04:15:41.235Z,45.37
2022-11-05T04:18:07.534Z,45.68
2022-11-05T04:20:33.843Z,45.78
2022-11-05T04:23:00.132Z,46.07
2022-11-05T04:25:26.425Z,45.63
2022-11-05T04:27:52.735Z,45.33
2022-11-05T04:30:19.062Z,45.54
2022-11-05T04:32:45.381Z,45.85
2022-11-05T04:35:11.679Z,45.72
2022-11-05T04:37:37.962Z,45.62
2022-11-05T04:40:04.247Z,45.62
2022-11-05T04:42:30.558Z,45.87
2022-11-05T04:44:56.867Z,45.70
2022-11-05T04:47:23.158Z,45.46
2022-11-05T04:49:49.461Z,45.86
2022-11-05T04:52:15.749Z,45.99
2022-11-05T04:54:42.239Z,45.99
2022-11-05T04:57:08.626Z,45.99
2022-11-05T04:59:34.915Z,46.46
2022-11-05T05:02:01.269Z,46.65
2022-11-05T05:04:27.621Z,46.15
2022-11-05T05:06:53.916Z,46.01
2022-11-05T05:09:20.212Z,46.47
2022-11-05T05:11:46.519Z,45.79
2022-11-05T05:14:12.821Z,45.92
2022-11-05T05:16:39.111Z,45.83
2022-11-05T05:19:05.447Z,45.42
2022-11-05T05:21:31.737Z,45.79
2022-11-05T05:23:58.022Z,45.74
2022-11-05T05:26:24.330Z,45.88
2022-11-05T05:28:50.611Z,46.41
2022-11-05T05:31:16.895Z,46.26
2022-11-05T05:33:43.194Z,46.04
2022-11-05T05:36:11.468Z,45.56
2022-11-05T05:38:37.977Z,45.10
2022-11-05T05:41:04.280Z,45.57
2022-11-05T05:43:30.558Z,45.53
2022-11-05T05:45:56.849Z,45.21
2022-11-05T05:48:23.155Z,45.53
2022-11-05T05:50:49.438Z,45.22
2022-11-05T05:53:15.709Z,45.18
2022-11-05T05:55:42.002Z,45.09
2022-11-05T05:58:09.637Z,45.10
2022-11-05T06:00:35.911Z,45.59
2022-11-05T06:03:02.352Z,45.61
2022-11-05T06:05:28.683Z,46.02
2022-11-05T06:07:54.971Z,45.98
2022-11-05T06:10:21.317Z,46.61
2022-11-05T06:12:47.689Z,46.40
2022-11-05T06:15:13.965Z,46.56
2022-11-05T06:17:40.267Z,46.60
2022-11-05T06:20:06.547Z,46.77
2022-11-05T06:22:32.823Z,46.77
2022-11-05T06:24:59.118Z,47.40
2022-11-05T06:27:25.398Z,47.06
2022-11-05T06:29:51.704Z,47.13
2022-11-05T06:32:18.006Z,47.05
2022-11-05T06:34:44.284Z,47.15
2022-11-05T06:37:10.572Z,47.19
2022-11-05T06:39:36.875Z,46.93
2022-11-05T06:42:18.095Z,46.77
2022-11-05T06:44:45.254Z,47.32
2022-11-05T06:47:11.534Z,47.26
2022-11-05T06:49:37.824Z,47.48
2022-11-05T06:52:04.136Z,47.33
2022-11-05T06:54:30.657Z,46.74
2022-11-05T06:56:56.925Z,46.53
2022-11-05T06:59:23.228Z,46.66
2022-11-05T07:01:49.600Z,46.09
2022-11-05T07:04:15.919Z,46.37
2022-11-05T07:06:42.259Z,46.38
2022-11-05T07:09:08.539Z,47.02
2022-11-05T07:11:34.817Z,46.62
2022-11-05T07:14:01.110Z,46.36
2022-11-05T07:16:27.386Z,46.01
2022-11-05T07:18:53.666Z,45.92
2022-11-05T07:21:19.975Z,46.89
2022-11-05T07:23:46.263Z,46.69
2022-11-05T07:26:12.635Z,46.02
2022-11-05T07:28:38.935Z,47.25
2022-11-05T07:31:05.217Z,47.34
2022-11-05T07:33:36.374Z,47.01
2022-11-05T07:36:03.074Z,47.50
2022-11-05T07:38:29.361Z,47.29
2022-11-05T07:40:55.630Z,47.92
2022-11-05T07:43:21.927Z,47.57
2022-11-05T07:45:48.206Z,47.76
2022-11-05T07:48:14.487Z,47.80
2022-11-05T07:50:40.791Z,47.56
2022-11-05T07:53:07.063Z,47.88
2022-11-05T07:55:33.352Z,47.85
2022-11-05T07:57:59.650Z,47.62
2022-11-05T08:00:25.932Z,47.40
2022-11-05T08:02:52.421Z,48.43
2022-11-05T08:05:20.083Z,48.74
2022-11-05T08:07:46.369Z,48.78
2022-11-05T08:10:12.663Z,48.88
2022-11-05T08:12:38.998Z,49.31
2022-11-05T08:15:05.279Z,48.93
2022-11-05T08:17:31.559Z,49.48
2022-11-05T08:19:58.311Z,49.04
2022-11-05T08:22:24.598Z,48.80
2022-11-05T08:24:50.890Z,49.22
2022-11-05T08:27:17.190Z,48.35
2022-11-05T08:29:43.477Z,48.56
2022-11-05T08:32:09.758Z,48.31
2022-11-05T08:34:36.055Z,48.44
2022-11-05T08:37:02.343Z,48.69
2022-11-05T08:39:28.632Z,50.89
2022-11-05T08:41:54.938Z,51.09
2022-11-05T08:44:21.222Z,51.69
2022-11-05T08:46:47.497Z,51.71
2022-11-05T08:49:13.803Z,52.38
2022-11-05T08:51:40.086Z,51.96
2022-11-05T08:54:06.358Z,51.69
2022-11-05T08:56:32.649Z,52.74
2022-11-05T08:58:58.920Z,52.00
2022-11-05T09:01:25.300Z,51.10
2022-11-05T09:03:52.277Z,51.95
2022-11-05T09:06:18.550Z,50.62
2022-11-05T09:08:44.834Z,49.57
2022-11-05T09:11:11.121Z,50.21
2022-11-05T09:13:37.407Z,50.14
2022-11-05T09:16:03.698Z,49.63
2022-11-05T09:18:30.047Z,49.74
2022-11-05T09:20:56.336Z,50.14
2022-11-05T09:23:22.637Z,50.19
2022-11-05T09:25:48.959Z,49.42
2022-11-05T09:28:17.202Z,49.23
2022-11-05T09:30:43.792Z,49.13
2022-11-05T09:33:10.377Z,50.43
2022-11-05T09:35:36.946Z,49.52
2022-11-05T09:38:03.235Z,48.88
2022-11-05T09:40:29.545Z,49.11
2022-11-05T09:42:55.825Z,48.95
2022-11-05T09:45:22.122Z,48.90
2022-11-05T09:47:48.428Z,49.10
2022-11-05T09:50:14.715Z,48.74
2022-11-05T09:52:40.999Z,49.13
2022-11-05T09:55:07.671Z,48.55
2022-11-05T09:57:33.962Z,49.11
2022-11-05T10:00:00.477Z,48.93
2022-11-05T10:02:26.812Z,48.72
2022-11-05T10:04:53.254Z,48.76
2022-11-05T10:07:19.585Z,48.28
2022-11-05T10:09:45.883Z,48.71
2022-11-05T10:12:12.163Z,48.37
2022-11-05T10:14:38.448Z,48.79
2022-11-05T10:17:04.751Z,48.73
2022-11-05T10:19:31.031Z,49.01
2022-11-05T10:22:06.666Z,48.94
2022-11-05T10:24:33.525Z,48.58
2022-11-05T10:26:59.807Z,48.59
2022-11-05T10:29:26.100Z,48.50
2022-11-05T10:31:52.396Z,48.24
2022-11-05T10:34:18.694Z,48.83
2022-11-05T10:36:45.141Z,48.58
2022-11-05T10:39:11.466Z,49.26
2022-11-05T10:41:37.755Z,49.06
2022-11-05T10:44:04.033Z,48.39
2022-11-05T10:46:30.326Z,48.70
2022-11-05T10:48:56.612Z,49.33
2022-11-05T10:51:22.903Z,50.68
2022-11-05T10:53:49.223Z,50.18
2022-11-05T10:56:34.641Z,39.58
2022-11-05T10:59:00.975Z,41.09
2022-11-05T11:01:27.407Z,43.16
2022-11-05T11:03:53.785Z,42.98
2022-11-05T11:06:20.263Z,42.19
2022-11-05T11:08:46.540Z,45.93
2022-11-05T11:11:12.815Z,43.21
2022-11-05T11:13:39.116Z,44.55
2022-11-05T11:16:05.389Z,44.57
2022-11-05T11:18:35.884Z,43.92
2022-11-05T11:21:05.209Z,45.13
2022-11-05T11:23:31.491Z,42.70
2022-11-05T11:25:57.773Z,41.45
2022-11-05T11:28:24.112Z,43.34
2022-11-05T11:30:50.390Z,42.75
2022-11-05T11:33:16.663Z,43.17
2022-11-05T11:35:42.966Z,40.28
2022-11-05T11:38:09.243Z,43.62
2022-11-05T11:40:35.521Z,41.61
2022-11-05T11:43:01.817Z,41.49
2022-11-05T11:45:28.100Z,39.68
2022-11-05T11:47:54.388Z,39.76
2022-11-05T11:50:20.705Z,41.06
2022-11-05T11:52:46.994Z,42.96
2022-11-05T11:55:13.295Z,43.40
2022-11-05T11:57:39.616Z,40.94
2022-11-05T12:00:09.866Z,44.13
2022-11-05T12:02:36.415Z,37.44
2022-11-05T12:05:02.813Z,43.45
2022-11-05T12:07:29.113Z,43.41
2022-11-05T12:09:55.395Z,40.72
2022-11-05T12:12:21.683Z,39.23
2022-11-05T12:14:47.959Z,37.14
2022-11-05T12:17:14.229Z,42.60
2022-11-05T12:19:40.536Z,39.33
2022-11-05T12:22:06.826Z,39.92
2022-11-05T12:24:33.097Z,41.76
2022-11-05T12:26:59.396Z,41.33
2022-11-05T12:29:25.681Z,38.17
2022-11-05T12:31:51.953Z,36.89
2022-11-05T12:34:18.286Z,40.66
2022-11-05T12:36:44.710Z,37.29
2022-11-05T12:39:10.995Z,38.52
2022-11-05T12:41:37.366Z,35.70
2022-11-05T12:44:03.636Z,38.02
2022-11-05T12:46:29.920Z,35.38
2022-11-05T12:48:56.207Z,35.63
2022-11-05T12:51:22.476Z,41.08
2022-11-05T12:53:48.740Z,39.09
2022-11-05T12:56:15.041Z,39.64
2022-11-05T12:58:41.324Z,38.90
2022-11-05T13:01:07.636Z,37.96
2022-11-05T13:03:34.095Z,40.47
2022-11-05T13:06:05.649Z,41.09
2022-11-05T13:08:32.418Z,41.42
2022-11-05T13:10:58.722Z,39.58
2022-11-05T13:13:25.024Z,38.07
2022-11-05T13:15:51.308Z,37.72
2022-11-05T13:18:17.645Z,37.90
2022-11-05T13:20:43.934Z,41.75
2022-11-05T13:23:10.533Z,40.49
2022-11-05T13:25:37.023Z,38.12
2022-11-05T13:28:03.320Z,40.39
2022-11-05T13:30:29.781Z,40.74
2022-11-05T13:32:56.120Z,39.58
2022-11-05T13:35:22.414Z,38.05
2022-11-05T13:37:48.717Z,40.14
2022-11-05T13:40:15.083Z,38.20
2022-11-05T13:42:41.371Z,37.92
2022-11-05T13:45:07.685Z,39.05
2022-11-05T13:47:33.988Z,40.89
2022-11-05T13:50:00.279Z,40.41
2022-11-05T13:52:26.568Z,42.65
2022-11-05T13:54:52.887Z,42.90
2022-11-05T13:57:19.171Z,43.38
2022-11-05T13:59:45.460Z,42.86
2022-11-05T14:02:11.871Z,43.86
2022-11-05T14:04:38.294Z,42.67
2022-11-05T14:07:04.590Z,43.18
2022-11-05T14:09:30.913Z,44.60
2022-11-05T14:11:57.214Z,43.46
2022-11-05T14:14:23.513Z,46.29
2022-11-05T14:16:50.076Z,44.49
2022-11-05T14:19:16.389Z,45.46
2022-11-05T14:21:42.683Z,46.59
2022-11-05T14:24:08.996Z,46.58
2022-11-05T14:26:35.289Z,44.32
2022-11-05T14:29:01.591Z,45.04
2022-11-05T14:31:47.241Z,43.66
2022-11-05T14:34:14.019Z,44.83
2022-11-05T14:36:40.328Z,43.93
2022-11-05T14:39:06.624Z,44.12
2022-11-05T14:41:32.912Z,42.17
2022-11-05T14:43:59.429Z,43.93
2022-11-05T14:46:25.727Z,44.63
2022-11-05T14:48:52.020Z,43.36
2022-11-05T14:51:18.334Z,43.57
2022-11-05T14:53:44.634Z,44.85
2022-11-05T14:56:10.919Z,45.79
2022-11-05T14:58:37.230Z,45.31
2022-11-05T15:01:03.606Z,45.78
2022-11-05T15:03:29.979Z,48.26
2022-11-05T15:05:56.335Z,50.02
2022-11-05T15:08:22.623Z,50.56
2022-11-05T15:10:48.907Z,48.92
2022-11-05T15:13:15.220Z,49.77
2022-11-05T15:15:41.506Z,49.14
2022-11-05T15:18:07.802Z,51.78
2022-11-05T15:20:38.850Z,52.59
2022-11-05T15:23:06.393Z,52.21
2022-11-05T15:25:32.687Z,53.22
2022-11-05T15:27:58.994Z,52.32
2022-11-05T15:30:25.295Z,53.39
2022-11-05T15:32:51.576Z,54.97
2022-11-05T15:35:17.891Z,54.52
2022-11-05T15:37:48.539Z,53.98
2022-11-05T15:40:18.834Z,54.06
2022-11-05T15:42:45.142Z,53.09
2022-11-05T15:45:11.443Z,53.20
2022-11-05T15:47:37.787Z,53.26
2022-11-05T15:50:07.458Z,52.39
2022-11-05T15:52:36.436Z,53.21
2022-11-05T15:55:02.863Z,53.41
2022-11-05T15:57:29.163Z,56.39
2022-11-05T15:59:55.461Z,58.32
2022-11-05T16:02:21.879Z,57.89
2022-11-05T16:04:48.231Z,59.15
2022-11-05T16:07:14.523Z,57.08
2022-11-05T16:09:40.842Z,57.91
2022-11-05T16:12:07.139Z,56.45
2022-11-05T16:14:33.436Z,56.36
2022-11-05T16:16:59.739Z,56.21
2022-11-05T16:19:26.021Z,57.12
2022-11-05T16:21:52.317Z,56.09
2022-11-05T16:24:18.637Z,56.14
2022-11-05T16:29:31.227Z,55.72
2022-11-05T16:31:57.524Z,55.57
2022-11-05T16:34:23.815Z,55.95
2022-11-05T16:36:50.147Z,57.28
2022-11-05T16:39:16.456Z,59.55
2022-11-05T16:41:42.746Z,58.95
2022-11-05T16:44:09.061Z,58.82
2022-11-05T16:46:35.346Z,57.68
2022-11-05T16:49:01.643Z,59.66
2022-11-05T16:51:27.996Z,60.42
2022-11-05T16:53:54.300Z,60.78
2022-11-05T16:56:20.597Z,59.37
2022-11-05T16:58:46.912Z,59.35
2022-11-05T17:01:13.236Z,60.40
2022-11-05T17:03:39.633Z,59.22
2022-11-05T17:06:05.946Z,59.03
2022-11-05T17:08:32.240Z,58.56
2022-11-05T17:10:58.547Z,59.44
2022-11-05T17:13:24.852Z,59.12
2022-11-05T17:15:51.141Z,59.10
2022-11-05T17:18:19.167Z,60.13
2022-11-05T17:20:45.807Z,57.99
2022-11-05T17:23:12.415Z,58.43
2022-11-05T17:25:39.069Z,58.94
2022-11-05T17:28:05.386Z,59.80
2022-11-05T17:30:31.685Z,59.80
2022-11-05T17:32:58.028Z,61.12
2022-11-05T17:35:24.359Z,84.39
2022-11-05T17:37:50.635Z,66.98
2022-11-05T17:40:16.923Z,59.70
2022-11-05T17:42:43.233Z,56.37
2022-11-05T17:45:09.519Z,54.35
2022-11-05T17:47:35.801Z,53.17
2022-11-05T17:50:02.143Z,51.79
2022-11-05T17:52:28.426Z,50.73
2022-11-05T17:54:54.716Z,50.97
2022-11-05T17:57:21.066Z,47.93
2022-11-05T17:59:47.352Z,46.45
2022-11-05T18:02:13.809Z,46.21
2022-11-05T18:04:40.295Z,45.97
2022-11-05T18:07:06.571Z,46.46
2022-11-05T18:09:32.858Z,47.67
2022-11-05T18:11:59.163Z,45.96
2022-11-05T18:14:25.455Z,46.07
2022-11-05T18:16:51.740Z,46.43
2022-11-05T18:19:18.043Z,46.60
2022-11-05T18:21:44.323Z,46.89
2022-11-05T18:24:10.602Z,46.71
2022-11-05T18:26:36.909Z,47.50
2022-11-05T18:29:03.204Z,47.11
2022-11-05T18:31:29.490Z,47.29
2022-11-05T18:33:55.802Z,47.23
2022-11-05T18:36:22.091Z,47.50
2022-11-05T18:38:48.398Z,47.49
2022-11-05T18:41:14.705Z,47.29
2022-11-05T18:43:40.997Z,47.89
2022-11-05T18:46:07.281Z,47.74
2022-11-05T18:48:33.585Z,47.60
2022-11-05T18:51:02.103Z,47.57
2022-11-05T18:53:28.544Z,47.33
2022-11-05T18:55:54.936Z,47.57
2022-11-05T18:58:21.210Z,47.45
2022-11-05T19:00:47.502Z,47.78
2022-11-05T19:03:13.834Z,47.72
2022-11-05T19:05:40.442Z,47.85
2022-11-05T19:08:06.728Z,47.44
2022-11-05T19:10:33.025Z,47.76
2022-11-05T19:12:59.312Z,47.49
2022-11-05T19:15:25.789Z,47.56
2022-11-05T19:17:52.271Z,47.69
2022-11-05T19:20:18.565Z,47.71
2022-11-05T19:22:44.843Z,47.48
2022-11-05T19:25:11.141Z,47.78
2022-11-05T19:27:37.436Z,47.76
2022-11-05T19:30:03.724Z,47.63
2022-11-05T19:32:30.020Z,47.71
2022-11-05T19:34:56.294Z,47.63
2022-11-05T19:37:22.578Z,47.51
2022-11-05T19:39:51.861Z,47.78
2022-11-05T19:42:18.145Z,47.50
2022-11-05T19:44:44.416Z,48.04
2022-11-05T19:47:10.707Z,48.23
2022-11-05T19:49:36.994Z,47.99
2022-11-05T19:52:03.270Z,48.27
2022-11-05T19:54:29.561Z,48.24
2022-11-05T19:56:55.839Z,48.63
2022-11-05T19:59:22.122Z,48.67
2022-11-05T20:01:48.605Z,48.59
2022-11-05T20:04:15.034Z,48.41
2022-11-05T20:06:41.376Z,48.46
2022-11-05T20:09:20.977Z,48.43
2022-11-05T20:11:48.629Z,48.46
2022-11-05T20:14:14.937Z,48.71
2022-11-05T20:16:41.200Z,48.35
2022-11-05T20:19:07.499Z,48.64
2022-11-05T20:21:33.793Z,48.23
2022-11-05T20:24:00.097Z,48.77
2022-11-05T20:26:26.397Z,48.77
2022-11-05T20:28:52.704Z,48.74
2022-11-05T20:31:18.987Z,49.11
2022-11-05T20:33:45.276Z,49.15
2022-11-05T20:36:11.576Z,48.87
2022-11-05T20:38:37.873Z,49.41
2022-11-05T20:41:04.166Z,48.80
2022-11-05T20:43:30.677Z,48.40
2022-11-05T20:45:57.011Z,48.81
2022-11-05T20:48:23.297Z,48.58
2022-11-05T20:50:49.594Z,48.85
2022-11-05T20:53:15.889Z,48.72
2022-11-05T20:55:42.201Z,48.75
2022-11-05T20:58:08.516Z,48.51
2022-11-05T21:00:34.803Z,48.51
2022-11-05T21:03:01.162Z,49.10
2022-11-05T21:05:32.665Z,48.95
2022-11-05T21:08:01.544Z,48.69
2022-11-05T21:10:27.899Z,49.98
2022-11-05T21:12:54.192Z,49.13
2022-11-05T21:15:20.492Z,49.10
2022-11-05T21:17:46.795Z,48.97
2022-11-05T21:20:13.094Z,48.93
2022-11-05T21:22:39.382Z,48.98
2022-11-05T21:25:05.694Z,49.08
2022-11-05T21:27:31.990Z,48.70
2022-11-05T21:29:58.288Z,49.21
2022-11-05T21:32:24.602Z,48.67
2022-11-05T21:34:50.893Z,49.27
2022-11-05T21:37:17.180Z,49.76
2022-11-05T21:39:43.484Z,49.37
2022-11-05T21:42:09.768Z,49.16
2022-11-05T21:44:36.059Z,49.04
2022-11-05T21:47:37.421Z,51.86
2022-11-05T21:50:03.706Z,52.91
2022-11-05T21:52:30.008Z,53.52
2022-11-05T21:54:56.315Z,52.78
2022-11-05T21:57:22.594Z,53.14
2022-11-05T21:59:48.892Z,52.72
2022-11-05T22:02:15.395Z,53.20
2022-11-05T22:04:41.798Z,52.63
2022-11-05T22:07:08.081Z,52.84
2022-11-05T22:09:34.378Z,52.85
2022-11-05T22:12:00.667Z,52.66
2022-11-05T22:14:27.166Z,53.02
2022-11-05T22:16:53.515Z,52.43
2022-11-05T22:19:19.798Z,52.46
2022-11-05T22:21:46.076Z,52.34
2022-11-05T22:24:12.379Z,52.28
2022-11-05T22:26:38.663Z,52.92
2022-11-05T22:29:04.938Z,52.71
2022-11-05T22:31:35.939Z,52.53
2022-11-05T22:34:02.871Z,52.41
2022-11-05T22:36:29.147Z,53.08
2022-11-05T22:38:55.446Z,53.27
2022-11-05T22:41:21.726Z,53.18
2022-11-05T22:43:48.011Z,53.17
2022-11-05T22:46:14.310Z,52.73
2022-11-05T22:48:40.596Z,52.63
2022-11-05T22:51:06.879Z,53.19
2022-11-05T22:53:33.179Z,52.68
2022-11-05T22:55:59.453Z,53.03
2022-11-05T22:58:25.733Z,53.44
2022-11-05T23:00:52.027Z,53.36
2022-11-05T23:03:18.306Z,53.65
2022-11-05T23:05:44.583Z,53.76
2022-11-05T23:08:11.188Z,53.61
2022-11-05T23:10:37.754Z,53.73
2022-11-05T23:13:04.035Z,53.82
2022-11-05T23:15:30.334Z,54.03
2022-11-05T23:17:56.614Z,54.23
2022-11-05T23:20:22.900Z,53.95
2022-11-05T23:22:49.247Z,54.05
2022-11-05T23:25:15.545Z,54.28
2022-11-05T23:27:41.838Z,54.59
2022-11-05T23:30:08.139Z,54.84
2022-11-05T23:32:34.417Z,54.48
2022-11-05T23:35:00.699Z,55.38
2022-11-05T23:37:26.997Z,54.59
2022-11-05T23:39:53.288Z,55.38
2022-11-05T23:42:19.573Z,54.98
2022-11-05T23:44:45.875Z,54.95
2022-11-05T23:47:12.168Z,55.24
2022-11-05T23:49:38.449Z,55.00
2022-11-05T23:52:04.754Z,55.42
2022-11-05T23:54:31.043Z,55.35
2022-11-05T23:56:57.326Z,55.66
2022-11-05T23:59:23.622Z,55.38
